Time;durP1;ratioP1;P1;durP2;ratioP2;P2;SDS_P1;SDS_P2;PMS_P1;PMS_P2;Temp;Humidity;BMP_temperature;BMP_pressure;BME280_temperature;BME280_humidity;BME280_pressure;Samples;Min_cycle;Max_cycle;Signal;HPM_P1;HPM_P2
2023/01/14 00:01:21;;;;;;;;;;;3.90;99.90;;;;;;5083580;28;20414;-76
2023/01/14 00:03:47;;;;;;;;;;;3.90;99.90;;;;;;5082760;28;19920;-76
2023/01/14 00:06:14;;;;;;;;;;;4.00;99.90;;;;;;5082672;28;20124;-78
2023/01/14 00:08:40;;;;;;;;;;;4.00;99.90;;;;;;5082284;28;19951;-77
2023/01/14 00:11:06;;;;;;;;;;;4.00;99.90;;;;;;5083068;28;19975;-79
2023/01/14 00:13:33;;;;;;;;;;;4.00;99.90;;;;;;5083655;28;19908;-77
2023/01/14 00:15:59;;;;;;;;;;;4.00;99.90;;;;;;5065743;28;19908;-77
2023/01/14 00:18:24;;;;;;;;;;;3.90;99.90;;;;;;5083099;28;20395;-76
2023/01/14 00:20:57;;;;;;;;;;;4.00;99.90;;;;;;5081527;28;19997;-77
2023/01/14 00:23:22;;;;;;;;;;;4.00;99.90;;;;;;5082512;28;19961;-77
2023/01/14 00:25:48;;;;;;;;;;;3.90;99.90;;;;;;5083162;28;19912;-77
2023/01/14 00:28:13;;;;;;;;;;;6.90;99.90;;;;;;5092634;28;19923;-76
2023/01/14 00:30:41;;;;;;;;;;;3.90;99.90;;;;;;5103406;28;19920;-77
2023/01/14 00:33:06;;;;;;;;;;;3.90;99.90;;;;;;5084792;28;20018;-76
2023/01/14 00:35:32;;;;;;;;;;;3.80;99.90;;;;;;5103090;28;20485;-78
2023/01/14 00:37:57;;;;;;;;;;;3.70;99.90;;;;;;5104075;28;20184;-77
2023/01/14 00:40:23;;;;;;;;;;;3.60;99.90;;;;;;5104739;28;20433;-76
2023/01/14 00:42:49;;;;;;;;;;;3.60;99.90;;;;;;5102857;28;19911;-76
2023/01/14 00:45:14;;;;;;;;;;;3.70;99.90;;;;;;5083735;28;19955;-76
2023/01/14 00:47:41;;;;;;;;;;;3.60;99.90;;;;;;5102414;28;19947;-77
2023/01/14 00:50:07;;;;;;;;;;;3.60;99.90;;;;;;5102352;28;19908;-77
2023/01/14 00:52:33;;;;;;;;;;;3.60;99.90;;;;;;5102769;28;20329;-76
2023/01/14 00:54:58;;;;;;;;;;;3.70;99.90;;;;;;5101988;28;20337;-77
2023/01/14 00:57:24;;;;;;;;;;;3.70;99.90;;;;;;5083996;28;19908;-77
2023/01/14 00:59:49;;;;;;;;;;;3.70;99.90;;;;;;5102259;28;19907;-77
2023/01/14 01:02:15;;;;;;;;;;;3.70;99.90;;;;;;5102302;28;20356;-77
2023/01/14 01:04:41;;;;;;;;;;;3.80;99.90;;;;;;5102458;28;20116;-77
2023/01/14 01:07:08;;;;;;;;;;;3.80;99.90;;;;;;5103485;28;20118;-77
2023/01/14 01:09:34;;;;;;;;;;;3.80;99.90;;;;;;5084284;28;20291;-77
2023/01/14 01:12:00;;;;;;;;;;;3.80;99.90;;;;;;5085418;28;20002;-77
2023/01/14 01:14:25;;;;;;;;;;;3.70;99.90;;;;;;5103440;28;19908;-76
2023/01/14 01:16:51;;;;;;;;;;;3.80;99.90;;;;;;5084936;28;19974;-76
2023/01/14 01:19:16;;;;;;;;;;;3.70;99.90;;;;;;5103663;28;19935;-76
2023/01/14 01:21:42;;;;;;;;;;;3.70;99.90;;;;;;5104696;28;20401;-77
2023/01/14 01:24:07;;;;;;;;;;;3.60;99.90;;;;;;5106342;28;20236;-76
2023/01/14 01:26:33;;;;;;;;;;;3.60;99.90;;;;;;5090636;28;19916;-78
2023/01/14 01:29:00;;;;;;;;;;;3.60;99.90;;;;;;5112234;28;19943;-77
2023/01/14 01:31:26;;;;;;;;;;;3.60;99.90;;;;;;5110776;28;19927;-76
2023/01/14 01:33:52;;;;;;;;;;;3.70;99.90;;;;;;5105889;28;20054;-76
2023/01/14 01:36:19;;;;;;;;;;;3.70;99.90;;;;;;5102300;28;20438;-76
2023/01/14 01:38:45;;;;;;;;;;;3.70;99.90;;;;;;5102188;28;19947;-76
2023/01/14 01:41:20;;;;;;;;;;;3.80;99.90;;;;;;5102207;28;19943;-77
2023/01/14 01:44:07;;;;;;;;;;;2.30;99.90;;;;;;5101806;28;20212;-77
2023/01/14 01:46:33;;;;;;;;;;;3.80;99.90;;;;;;5101180;28;20340;-78
2023/01/14 01:49:10;;;;;;;;;;;3.90;99.90;;;;;;5102879;28;19916;-77
2023/01/14 01:51:39;;;;;;;;;;;3.90;99.90;;;;;;5102392;28;19970;-77
2023/01/14 01:54:05;;;;;;;;;;;3.80;99.90;;;;;;5102398;28;19908;-79
2023/01/14 01:56:34;;;;;;;;;;;3.80;99.90;;;;;;5103556;28;19918;-77
2023/01/14 01:59:02;;;;;;;;;;;3.70;99.90;;;;;;5102361;28;20409;-77
2023/01/14 02:01:28;;;;;;;;;;;3.70;99.90;;;;;;5104218;28;20577;-77
2023/01/14 02:03:54;;;;;;;;;;;3.70;99.90;;;;;;5103051;28;19916;-76
2023/01/14 02:06:23;;;;;;;;;;;3.70;99.90;;;;;;5103469;28;19957;-77
2023/01/14 02:08:51;;;;;;;;;;;3.70;99.90;;;;;;5103193;28;20180;-77
2023/01/14 02:11:37;;;;;;;;;;;3.70;99.90;;;;;;5102922;28;19989;-76
2023/01/14 02:14:08;;;;;;;;;;;3.80;99.90;;;;;;5101558;28;19954;-76
2023/01/14 02:16:37;;;;;;;;;;;3.80;99.90;;;;;;5105979;28;20416;-77
2023/01/14 02:19:09;;;;;;;;;;;3.80;99.90;;;;;;5109578;28;19931;-77
2023/01/14 02:21:39;;;;;;;;;;;3.80;99.90;;;;;;5111061;28;20250;-78
2023/01/14 02:24:13;;;;;;;;;;;3.90;99.90;;;;;;5109409;28;19907;-77
2023/01/14 02:26:44;;;;;;;;;;;3.90;99.90;;;;;;5108207;28;20010;-77
2023/01/14 02:29:16;;;;;;;;;;;4.00;99.90;;;;;;5101947;28;19919;-77
2023/01/14 02:31:47;;;;;;;;;;;3.90;99.90;;;;;;5101377;28;19916;-77
2023/01/14 02:34:12;;;;;;;;;;;4.00;99.90;;;;;;5102166;28;20372;-76
2023/01/14 02:36:44;;;;;;;;;;;4.10;99.90;;;;;;5101986;28;19907;-77
2023/01/14 02:39:13;;;;;;;;;;;4.10;99.90;;;;;;5103204;28;20139;-76
2023/01/14 02:44:36;;;;;;;;;;;4.10;99.90;;;;;;5105326;28;19981;-77
2023/01/14 02:47:05;;;;;;;;;;;4.10;99.90;;;;;;5105057;28;19908;-76
2023/01/14 02:49:32;;;;;;;;;;;4.10;99.90;;;;;;5104914;28;19908;-76
2023/01/14 02:52:04;;;;;;;;;;;4.80;99.90;;;;;;5106347;28;19920;-78
2023/01/14 02:54:30;;;;;;;;;;;3.90;99.90;;;;;;5097883;28;19908;-78
2023/01/14 02:56:57;;;;;;;;;;;4.20;99.90;;;;;;5088272;28;20215;-76
2023/01/14 02:59:26;;;;;;;;;;;4.10;99.90;;;;;;5107518;28;19922;-77
2023/01/14 03:01:58;;;;;;;;;;;4.10;99.90;;;;;;5107753;28;19918;-76
2023/01/14 03:04:56;;;;;;;;;;;4.10;99.90;;;;;;5116110;28;19949;-76
2023/01/14 03:07:27;;;;;;;;;;;4.10;99.90;;;;;;5011352;28;19918;-76
2023/01/14 03:09:53;;;;;;;;;;;4.20;99.90;;;;;;5010502;28;19910;-76
2023/01/14 03:12:27;;;;;;;;;;;4.20;99.90;;;;;;5009352;28;20021;-76
2023/01/14 03:15:01;;;;;;;;;;;4.20;99.90;;;;;;5003640;28;19914;-77
2023/01/14 03:17:33;;;;;;;;;;;2.50;99.90;;;;;;4986870;28;19910;-77
2023/01/14 03:20:08;;;;;;;;;;;4.10;99.90;;;;;;5002002;28;20298;-77
2023/01/14 03:22:34;;;;;;;;;;;4.10;99.90;;;;;;4984648;28;19913;-76
2023/01/14 03:25:01;;;;;;;;;;;4.00;99.90;;;;;;4985470;28;19914;-76
2023/01/14 03:27:30;;;;;;;;;;;4.00;99.90;;;;;;5001696;28;19914;-76
2023/01/14 03:29:58;;;;;;;;;;;4.00;99.90;;;;;;5003247;28;20026;-76
2023/01/14 03:32:27;;;;;;;;;;;4.00;99.90;;;;;;5001659;28;19918;-77
2023/01/14 03:35:13;;;;;;;;;;;3.90;99.90;;;;;;5004424;28;20208;-76
2023/01/14 03:37:41;;;;;;;;;;;3.80;99.90;;;;;;5001114;28;20557;-76
2023/01/14 03:40:10;;;;;;;;;;;3.60;99.90;;;;;;4985486;28;19909;-76
2023/01/14 03:42:40;;;;;;;;;;;3.50;99.90;;;;;;5005730;28;20006;-76
2023/01/14 03:45:10;;;;;;;;;;;3.60;99.90;;;;;;5089677;28;19919;-77
2023/01/14 03:47:36;;;;;;;;;;;3.70;99.90;;;;;;5108301;28;19912;-76
2023/01/14 03:50:04;;;;;;;;;;;3.70;99.90;;;;;;5109252;28;20208;-77
2023/01/14 03:52:50;;;;;;;;;;;3.80;99.90;;;;;;5114471;28;20101;-76
2023/01/14 03:55:20;;;;;;;;;;;3.80;99.90;;;;;;5093852;28;20345;-77
2023/01/14 03:57:48;;;;;;;;;;;3.70;99.90;;;;;;5111974;28;20566;-77
2023/01/14 04:00:26;;;;;;;;;;;3.80;99.90;;;;;;5107026;28;19915;-77
2023/01/14 04:02:52;;;;;;;;;;;3.80;99.90;;;;;;5106217;28;19908;-75
2023/01/14 04:05:20;;;;;;;;;;;2.70;99.90;;;;;;5086910;28;19916;-77
2023/01/14 04:07:49;;;;;;;;;;;3.70;99.90;;;;;;5105700;28;19945;-76
2023/01/14 04:10:14;;;;;;;;;;;4.10;99.90;;;;;;5086845;28;20002;-75
2023/01/14 04:15:20;;;;;;;;;;;3.60;99.90;;;;;;5106737;28;20014;-76
2023/01/14 04:15:25;;;;;;;;;;;3.60;99.90;;;;;;5106209;28;19915;-75
2023/01/14 04:17:51;;;;;;;;;;;3.60;99.90;;;;;;5105934;28;19908;-76
2023/01/14 04:20:17;;;;;;;;;;;3.50;99.90;;;;;;5105652;28;19907;-76
2023/01/14 04:22:42;;;;;;;;;;;3.50;99.90;;;;;;5104898;28;20340;-77
2023/01/14 04:25:08;;;;;;;;;;;3.50;99.90;;;;;;5105475;28;20399;-77
2023/01/14 04:27:33;;;;;;;;;;;4.10;99.90;;;;;;5105197;28;19919;-76
2023/01/14 04:29:59;;;;;;;;;;;3.50;99.90;;;;;;5107742;28;19908;-76
2023/01/14 04:32:25;;;;;;;;;;;3.50;99.90;;;;;;5106935;28;19967;-76
2023/01/14 04:34:50;;;;;;;;;;;3.50;99.90;;;;;;5106693;28;20003;-76
2023/01/14 04:37:16;;;;;;;;;;;3.50;99.90;;;;;;5108657;28;19998;-77
2023/01/14 04:39:41;;;;;;;;;;;3.50;99.90;;;;;;5111864;28;19908;-77
2023/01/14 04:42:26;;;;;;;;;;;3.50;99.90;;;;;;5112102;28;19908;-76
2023/01/14 04:45:01;;;;;;;;;;;3.50;99.90;;;;;;5111783;28;19919;-77
2023/01/14 04:47:27;;;;;;;;;;;3.50;99.90;;;;;;5111618;28;20026;-77
2023/01/14 04:49:53;;;;;;;;;;;3.50;99.90;;;;;;5110824;28;20234;-77
2023/01/14 04:52:19;;;;;;;;;;;3.60;99.90;;;;;;5107765;28;20008;-76
2023/01/14 04:54:45;;;;;;;;;;;3.60;99.90;;;;;;5104277;28;19966;-76
2023/01/14 04:57:12;;;;;;;;;;;3.60;99.90;;;;;;5104275;28;19918;-76
2023/01/14 04:59:38;;;;;;;;;;;3.60;99.90;;;;;;5109240;28;20297;-77
2023/01/14 05:02:03;;;;;;;;;;;3.70;99.90;;;;;;5109446;28;20357;-77
2023/01/14 05:04:35;;;;;;;;;;;3.70;99.90;;;;;;5107641;28;20220;-77
2023/01/14 05:07:04;;;;;;;;;;;3.70;99.90;;;;;;5089398;28;20407;-77
2023/01/14 05:09:30;;;;;;;;;;;3.80;99.90;;;;;;5089297;28;20207;-76
2023/01/14 05:11:55;;;;;;;;;;;3.70;99.90;;;;;;5103895;28;19942;-77
2023/01/14 05:14:21;;;;;;;;;;;3.80;99.90;;;;;;5103885;28;19915;-78
2023/01/14 05:16:46;;;;;;;;;;;3.80;99.90;;;;;;5103749;28;19908;-76
2023/01/14 05:19:13;;;;;;;;;;;3.70;99.90;;;;;;5102405;28;20302;-75
2023/01/14 05:21:39;;;;;;;;;;;3.80;99.90;;;;;;5103398;28;20146;-77
2023/01/14 05:24:04;;;;;;;;;;;3.80;99.90;;;;;;5084364;28;20616;-77
2023/01/14 05:26:30;;;;;;;;;;;3.80;99.90;;;;;;5102677;28;19908;-75
2023/01/14 05:28:56;;;;;;;;;;;3.80;99.90;;;;;;5102462;28;19920;-76
2023/01/14 05:31:21;;;;;;;;;;;3.80;99.90;;;;;;5104765;28;20068;-77
2023/01/14 05:33:47;;;;;;;;;;;3.80;99.90;;;;;;5102153;28;19962;-76
2023/01/14 05:36:12;;;;;;;;;;;3.80;99.90;;;;;;5102771;28;20119;-76
2023/01/14 05:38:38;;;;;;;;;;;3.80;99.90;;;;;;5102737;28;19915;-76
2023/01/14 05:41:03;;;;;;;;;;;3.80;99.90;;;;;;5102362;28;19912;-77
2023/01/14 05:46:15;;;;;;;;;;;3.80;99.90;;;;;;5102735;28;19964;-76
2023/01/14 05:48:40;;;;;;;;;;;3.70;99.90;;;;;;5084437;28;19908;-76
2023/01/14 05:51:06;;;;;;;;;;;3.70;99.90;;;;;;5102412;28;19919;-77
2023/01/14 05:53:32;;;;;;;;;;;3.70;99.90;;;;;;5086297;28;19984;-76
2023/01/14 05:55:59;;;;;;;;;;;3.70;99.90;;;;;;5085730;28;19908;-75
2023/01/14 05:58:34;;;;;;;;;;;3.70;99.90;;;;;;5103747;28;19908;-77
2023/01/14 06:06:36;;;;;;;;;;;3.70;99.90;;;;;;5108360;28;19915;-77
2023/01/14 06:09:06;;;;;;;;;;;3.70;99.90;;;;;;5112360;28;20003;-76
2023/01/14 06:11:35;;;;;;;;;;;3.70;99.90;;;;;;5111536;28;19922;-76
2023/01/14 06:14:01;;;;;;;;;;;3.70;99.90;;;;;;5092966;28;19942;-76
2023/01/14 06:16:28;;;;;;;;;;;3.70;99.90;;;;;;5111350;28;20200;-76
2023/01/14 06:18:54;;;;;;;;;;;3.70;99.90;;;;;;5110705;28;20429;-76
2023/01/14 06:21:21;;;;;;;;;;;3.60;99.90;;;;;;5111581;28;20370;-77
2023/01/14 06:23:47;;;;;;;;;;;3.60;99.90;;;;;;5110805;28;19914;-76
2023/01/14 06:26:16;;;;;;;;;;;3.60;99.90;;;;;;5109423;28;19908;-77
2023/01/14 06:28:42;;;;;;;;;;;3.50;99.90;;;;;;5089615;28;19963;-76
2023/01/14 06:31:12;;;;;;;;;;;3.60;99.90;;;;;;5064821;28;19916;-76
2023/01/14 06:33:38;;;;;;;;;;;3.50;99.90;;;;;;5080443;28;20015;-76
2023/01/14 06:36:05;;;;;;;;;;;3.50;99.90;;;;;;5079198;28;20406;-76
2023/01/14 06:38:30;;;;;;;;;;;3.30;99.90;;;;;;5079531;28;20402;-77
2023/01/14 06:41:00;;;;;;;;;;;3.60;99.90;;;;;;5082462;28;20197;-76
2023/01/14 06:43:25;;;;;;;;;;;3.50;99.90;;;;;;5079667;28;20003;-77
2023/01/14 06:45:52;;;;;;;;;;;3.60;99.90;;;;;;5061345;28;20030;-76
2023/01/14 06:48:17;;;;;;;;;;;3.70;99.90;;;;;;5079238;28;19915;-76
2023/01/14 06:50:43;;;;;;;;;;;3.70;99.90;;;;;;5061217;28;19916;-77
2023/01/14 06:53:09;;;;;;;;;;;3.90;99.90;;;;;;5060640;28;19912;-77
2023/01/14 06:55:34;;;;;;;;;;;3.80;99.90;;;;;;5079463;28;19915;-76
2023/01/14 06:58:00;;;;;;;;;;;3.80;99.90;;;;;;5079531;28;19916;-76
2023/01/14 07:00:26;;;;;;;;;;;3.90;99.90;;;;;;5060837;28;19970;-76
2023/01/14 07:02:52;;;;;;;;;;;4.00;99.90;;;;;;5079912;28;19909;-77
2023/01/14 07:05:17;;;;;;;;;;;4.00;99.90;;;;;;5080071;28;20433;-77
2023/01/14 07:07:47;;;;;;;;;;;4.00;99.90;;;;;;5079541;28;19947;-77
2023/01/14 07:10:13;;;;;;;;;;;4.10;99.90;;;;;;5079658;28;20398;-77
2023/01/14 07:12:42;;;;;;;;;;;4.10;99.90;;;;;;5061547;28;19919;-76
2023/01/14 07:15:09;;;;;;;;;;;4.10;99.90;;;;;;5080033;28;20341;-76
2023/01/14 07:17:34;;;;;;;;;;;4.10;99.90;;;;;;5080126;28;19912;-77
2023/01/14 07:20:02;;;;;;;;;;;4.20;99.90;;;;;;5079841;28;19908;-77
2023/01/14 07:22:27;;;;;;;;;;;4.00;99.90;;;;;;5079325;28;20405;-76
2023/01/14 07:24:53;;;;;;;;;;;3.10;99.90;;;;;;5078966;28;19912;-77
2023/01/14 07:27:19;;;;;;;;;;;4.10;99.90;;;;;;5063125;28;19919;-76
2023/01/14 07:29:44;;;;;;;;;;;4.10;99.90;;;;;;5101698;28;19927;-77
2023/01/14 07:32:10;;;;;;;;;;;4.10;99.90;;;;;;5103321;28;20127;-77
2023/01/14 07:34:38;;;;;;;;;;;4.10;99.90;;;;;;5084778;28;19915;-77
2023/01/14 07:37:04;;;;;;;;;;;4.10;99.90;;;;;;5103108;28;19912;-76
2023/01/14 07:39:29;;;;;;;;;;;4.10;99.90;;;;;;5103192;28;19915;-76
2023/01/14 07:41:55;;;;;;;;;;;4.10;99.90;;;;;;5103422;28;19908;-77
2023/01/14 07:44:23;;;;;;;;;;;4.10;99.90;;;;;;5084489;28;20492;-76
2023/01/14 07:46:53;;;;;;;;;;;4.10;99.90;;;;;;5102833;28;19914;-77
2023/01/14 07:49:19;;;;;;;;;;;4.10;99.90;;;;;;5085259;28;20120;-76
2023/01/14 07:51:45;;;;;;;;;;;4.10;99.90;;;;;;5102996;28;19923;-77
2023/01/14 07:54:10;;;;;;;;;;;4.10;99.90;;;;;;5084463;28;19915;-76
2023/01/14 07:56:36;;;;;;;;;;;4.00;99.90;;;;;;5102399;28;19943;-77
2023/01/14 07:59:01;;;;;;;;;;;4.00;99.90;;;;;;5084713;28;20278;-76
2023/01/14 08:01:27;;;;;;;;;;;4.00;99.90;;;;;;5104463;28;19908;-77
2023/01/14 08:03:52;;;;;;;;;;;4.00;99.90;;;;;;5103020;28;20573;-76
2023/01/14 08:06:18;;;;;;;;;;;4.10;99.90;;;;;;5084489;28;19908;-77
2023/01/14 08:08:44;;;;;;;;;;;4.00;99.90;;;;;;5104385;28;20366;-76
2023/01/14 08:11:09;;;;;;;;;;;4.10;99.90;;;;;;5103868;28;19916;-77
2023/01/14 08:13:35;;;;;;;;;;;4.10;99.90;;;;;;5103409;28;19908;-76
2023/01/14 08:16:02;;;;;;;;;;;4.10;99.90;;;;;;5085094;28;19918;-76
2023/01/14 08:18:29;;;;;;;;;;;4.10;99.90;;;;;;5084907;28;19908;-75
2023/01/14 08:20:56;;;;;;;;;;;4.10;99.90;;;;;;5104860;28;20195;-77
2023/01/14 08:23:21;;;;;;;;;;;2.30;99.90;;;;;;5105259;28;20377;-76
2023/01/14 08:25:47;;;;;;;;;;;4.10;99.90;;;;;;5105055;28;20236;-76
2023/01/14 08:28:12;;;;;;;;;;;4.10;99.90;;;;;;5105651;28;19927;-77
2023/01/14 08:30:38;;;;;;;;;;;4.10;99.90;;;;;;5104960;28;19948;-77
2023/01/14 08:33:04;;;;;;;;;;;3.50;99.90;;;;;;5105195;28;19918;-77
2023/01/14 08:35:29;;;;;;;;;;;4.10;99.90;;;;;;5105097;28;19923;-76
2023/01/14 08:37:55;;;;;;;;;;;4.10;99.90;;;;;;5087196;28;19904;-76
2023/01/14 08:40:20;;;;;;;;;;;4.10;99.90;;;;;;5106497;28;19938;-77
2023/01/14 08:42:48;;;;;;;;;;;4.10;99.90;;;;;;5110854;28;19908;-78
2023/01/14 08:45:13;;;;;;;;;;;4.10;99.90;;;;;;5115692;28;19907;-77
2023/01/14 08:47:39;;;;;;;;;;;4.10;99.90;;;;;;5095400;28;20405;-76
2023/01/14 08:50:05;;;;;;;;;;;4.10;99.90;;;;;;5093809;28;19990;-77
2023/01/14 08:52:30;;;;;;;;;;;4.00;99.90;;;;;;5107023;28;19966;-77
2023/01/14 08:54:56;;;;;;;;;;;4.00;99.90;;;;;;5110940;28;20577;-77
2023/01/14 08:57:22;;;;;;;;;;;4.00;99.90;;;;;;5109677;28;19916;-78
2023/01/14 08:59:48;;;;;;;;;;;3.40;99.90;;;;;;5085683;28;19915;-77
2023/01/14 09:02:15;;;;;;;;;;;4.00;99.90;;;;;;5102713;28;19915;-76
2023/01/14 09:04:40;;;;;;;;;;;4.10;99.90;;;;;;5103040;28;19915;-77
2023/01/14 09:18:04;;;;;;;;;;;4.20;99.90;;;;;;5102701;28;19926;-77
2023/01/14 09:20:30;;;;;;;;;;;4.20;99.90;;;;;;5103082;28;19908;-76
2023/01/14 09:22:56;;;;;;;;;;;4.30;99.90;;;;;;5085452;28;19930;-76
2023/01/14 09:25:22;;;;;;;;;;;4.20;99.90;;;;;;5103066;28;19904;-77
2023/01/14 09:27:47;;;;;;;;;;;4.20;99.90;;;;;;5085404;28;20573;-77
2023/01/14 09:30:13;;;;;;;;;;;4.20;99.90;;;;;;5103996;28;19943;-76
2023/01/14 09:32:39;;;;;;;;;;;4.20;99.90;;;;;;5109527;28;19915;-78
2023/01/14 09:35:05;;;;;;;;;;;4.20;99.90;;;;;;5108342;28;20011;-76
2023/01/14 09:37:33;;;;;;;;;;;4.20;99.90;;;;;;5090374;28;20097;-77
2023/01/14 09:39:59;;;;;;;;;;;4.20;99.90;;;;;;5092641;28;19958;-77
2023/01/14 09:42:28;;;;;;;;;;;4.20;99.90;;;;;;5108781;28;19912;-77
2023/01/14 09:45:00;;;;;;;;;;;4.10;99.90;;;;;;5089163;28;19904;-77
2023/01/14 09:47:26;;;;;;;;;;;4.10;99.90;;;;;;5088574;28;20553;-76
2023/01/14 09:49:51;;;;;;;;;;;4.10;99.90;;;;;;5109177;28;19914;-77
2023/01/14 09:52:19;;;;;;;;;;;4.10;99.90;;;;;;5106977;28;20553;-77
2023/01/14 09:54:54;;;;;;;;;;;4.10;99.90;;;;;;5109423;28;19912;-77
2023/01/14 09:57:39;;;;;;;;;;;4.10;99.90;;;;;;5110215;28;19904;-77
2023/01/14 10:00:07;;;;;;;;;;;4.10;99.90;;;;;;5108234;28;19933;-77
2023/01/14 10:02:50;;;;;;;;;;;4.20;99.90;;;;;;5107661;28;19912;-76
2023/01/14 10:05:16;;;;;;;;;;;4.20;99.90;;;;;;5105051;28;19916;-76
2023/01/14 10:07:42;;;;;;;;;;;4.20;99.90;;;;;;5103331;28;19908;-76
2023/01/14 10:10:37;;;;;;;;;;;4.20;99.90;;;;;;5106445;28;19908;-76
2023/01/14 10:13:09;;;;;;;;;;;4.20;99.90;;;;;;4989562;28;19918;-77
2023/01/14 10:15:44;;;;;;;;;;;4.30;99.90;;;;;;5002787;28;19929;-77
2023/01/14 10:18:13;;;;;;;;;;;4.30;99.90;;;;;;4981209;28;19909;-76
2023/01/14 10:20:58;;;;;;;;;;;4.20;99.90;;;;;;4981141;28;19940;-76
2023/01/14 10:23:37;;;;;;;;;;;4.30;99.90;;;;;;4997286;28;20008;-76
2023/01/14 10:26:18;;;;;;;;;;;4.30;99.90;;;;;;4996524;28;19909;-76
2023/01/14 10:28:46;;;;;;;;;;;4.30;99.90;;;;;;4996747;28;20435;-76
2023/01/14 10:31:27;;;;;;;;;;;4.40;99.90;;;;;;4980070;28;19913;-76
2023/01/14 10:33:53;;;;;;;;;;;4.50;99.90;;;;;;4996423;28;19967;-76
2023/01/14 10:36:21;;;;;;;;;;;4.50;99.90;;;;;;4996448;28;19945;-77
2023/01/14 10:38:48;;;;;;;;;;;4.50;99.90;;;;;;4996221;28;19999;-76
2023/01/14 10:41:14;;;;;;;;;;;4.60;99.90;;;;;;4996355;28;19913;-76
2023/01/14 10:43:42;;;;;;;;;;;4.60;99.90;;;;;;4995669;28;20604;-76
2023/01/14 10:46:17;;;;;;;;;;;4.60;99.90;;;;;;4979698;28;19975;-77
2023/01/14 10:48:50;;;;;;;;;;;4.70;99.90;;;;;;5014266;28;19982;-75
2023/01/14 10:51:37;;;;;;;;;;;4.70;99.90;;;;;;5081231;28;19998;-76
2023/01/14 10:54:28;;;;;;;;;;;4.10;99.90;;;;;;5101188;28;19908;-76
2023/01/14 10:56:55;;;;;;;;;;;4.70;99.90;;;;;;5094758;28;20351;-76
2023/01/14 10:59:24;;;;;;;;;;;4.60;99.90;;;;;;5100054;28;19908;-76
2023/01/14 11:01:49;;;;;;;;;;;4.70;99.90;;;;;;5100086;28;19951;-77
2023/01/14 11:04:15;;;;;;;;;;;4.60;99.90;;;;;;5101361;28;19935;-76
2023/01/14 11:06:41;;;;;;;;;;;4.70;99.90;;;;;;5103658;28;19915;-77
2023/01/14 11:09:15;;;;;;;;;;;4.80;99.90;;;;;;5104623;28;19943;-77
2023/01/14 11:11:42;;;;;;;;;;;4.80;99.90;;;;;;5104734;28;19993;-77
2023/01/14 11:14:18;;;;;;;;;;;4.80;99.90;;;;;;5104420;28;19904;-76
2023/01/14 11:16:44;;;;;;;;;;;4.80;99.90;;;;;;5106371;28;20561;-76
2023/01/14 11:19:15;;;;;;;;;;;4.80;99.90;;;;;;5109752;28;19915;-79
2023/01/14 11:21:50;;;;;;;;;;;4.80;99.90;;;;;;5112357;28;19904;-76
2023/01/14 11:24:19;;;;;;;;;;;4.80;99.90;;;;;;5111536;28;20389;-76
2023/01/14 11:26:45;;;;;;;;;;;4.90;99.90;;;;;;5111324;28;20013;-76
2023/01/14 11:29:10;;;;;;;;;;;4.80;99.90;;;;;;5106418;28;20625;-76
2023/01/14 11:31:38;;;;;;;;;;;4.90;99.90;;;;;;5111215;28;20065;-76
2023/01/14 11:34:04;;;;;;;;;;;5.00;99.90;;;;;;5110255;28;19908;-77
2023/01/14 11:36:32;;;;;;;;;;;5.00;99.90;;;;;;5104755;28;19907;-76
2023/01/14 11:38:59;;;;;;;;;;;4.60;99.90;;;;;;5104024;28;19916;-76
2023/01/14 11:41:32;;;;;;;;;;;5.10;99.90;;;;;;5103596;28;20106;-77
2023/01/14 11:44:03;;;;;;;;;;;5.20;99.90;;;;;;5103944;28;20003;-77
2023/01/14 11:46:29;;;;;;;;;;;5.20;99.90;;;;;;5102652;28;20543;-78
2023/01/14 11:49:18;;;;;;;;;;;5.30;99.90;;;;;;5103381;28;19918;-75
2023/01/14 11:51:57;;;;;;;;;;;5.30;99.90;;;;;;5104081;28;19911;-77
2023/01/14 11:54:23;;;;;;;;;;;5.30;99.90;;;;;;5102892;28;19915;-77
2023/01/14 11:56:51;;;;;;;;;;;5.30;99.90;;;;;;5103778;28;19907;-77
2023/01/14 11:59:24;;;;;;;;;;;5.20;99.90;;;;;;5103079;28;19994;-78
2023/01/14 12:01:57;;;;;;;;;;;5.20;99.90;;;;;;5104595;28;19954;-77
2023/01/14 12:04:24;;;;;;;;;;;5.20;99.90;;;;;;5103199;28;19907;-76
2023/01/14 12:06:53;;;;;;;;;;;5.20;99.90;;;;;;5084515;28;19914;-77
2023/01/14 12:09:26;;;;;;;;;;;5.20;99.90;;;;;;5101887;28;19903;-78
2023/01/14 12:11:56;;;;;;;;;;;5.30;99.90;;;;;;5102212;28;19998;-77
2023/01/14 12:17:12;;;;;;;;;;;5.30;99.90;;;;;;5102570;28;19980;-80
2023/01/14 12:19:53;;;;;;;;;;;5.30;99.90;;;;;;5083658;28;19912;-77
2023/01/14 12:22:37;;;;;;;;;;;5.30;99.90;;;;;;5102417;28;19999;-76
2023/01/14 12:25:03;;;;;;;;;;;5.30;99.90;;;;;;5102586;28;19981;-76
2023/01/14 12:27:47;;;;;;;;;;;5.30;99.90;;;;;;5103416;28;20550;-77
2023/01/14 12:30:22;;;;;;;;;;;5.40;99.90;;;;;;5102120;28;19907;-77
2023/01/14 12:32:58;;;;;;;;;;;5.40;99.90;;;;;;5086534;28;19916;-77
2023/01/14 12:35:25;;;;;;;;;;;5.40;99.90;;;;;;5084225;28;19904;-76
2023/01/14 12:37:53;;;;;;;;;;;5.40;99.90;;;;;;5084828;28;20526;-77
2023/01/14 12:46:03;;;;;;;;;;;5.50;99.90;;;;;;5103787;28;19923;-76
2023/01/14 12:48:29;;;;;;;;;;;5.60;99.90;;;;;;5104114;28;20334;-76
2023/01/14 12:51:01;;;;;;;;;;;5.50;99.90;;;;;;5086077;28;19911;-78
2023/01/14 12:53:28;;;;;;;;;;;5.50;99.90;;;;;;5104340;28;19914;-77
2023/01/14 12:55:56;;;;;;;;;;;5.50;99.90;;;;;;5105731;28;19912;-77
2023/01/14 12:58:24;;;;;;;;;;;5.50;99.90;;;;;;5109356;28;19908;-76
2023/01/14 13:00:52;;;;;;;;;;;5.60;99.90;;;;;;5109722;28;19908;-77
2023/01/14 13:03:21;;;;;;;;;;;5.60;99.90;;;;;;5091942;28;19907;-77
2023/01/14 13:05:47;;;;;;;;;;;5.60;99.90;;;;;;5109324;28;19915;-76
2023/01/14 13:08:21;;;;;;;;;;;5.60;99.90;;;;;;5089143;28;19908;-76
2023/01/14 13:10:56;;;;;;;;;;;5.60;99.90;;;;;;5107328;28;20003;-79
2023/01/14 13:13:23;;;;;;;;;;;5.60;99.90;;;;;;5109414;28;19904;-76
2023/01/14 13:15:49;;;;;;;;;;;5.60;99.90;;;;;;5108121;28;19947;-77
2023/01/14 13:18:36;;;;;;;;;;;5.70;99.90;;;;;;5107102;28;19946;-77
2023/01/14 13:21:04;;;;;;;;;;;5.70;99.90;;;;;;5084385;28;19908;-77
2023/01/14 13:23:36;;;;;;;;;;;5.70;99.90;;;;;;5083478;28;19969;-76
2023/01/14 13:26:02;;;;;;;;;;;5.80;99.90;;;;;;5102120;28;19947;-79
2023/01/14 13:28:28;;;;;;;;;;;5.70;99.90;;;;;;5101773;28;19949;-78
2023/01/14 13:30:56;;;;;;;;;;;5.70;99.90;;;;;;5100777;28;20610;-77
2023/01/14 13:33:29;;;;;;;;;;;5.70;99.90;;;;;;5102038;28;20002;-77
2023/01/14 13:36:13;;;;;;;;;;;5.70;99.90;;;;;;5102180;28;19904;-77
2023/01/14 13:38:45;;;;;;;;;;;5.70;99.90;;;;;;5103029;28;19911;-77
2023/01/14 13:41:12;;;;;;;;;;;5.70;99.90;;;;;;5101874;28;19954;-77
2023/01/14 13:43:47;;;;;;;;;;;5.80;99.90;;;;;;5102582;28;20108;-77
2023/01/14 13:46:30;;;;;;;;;;;5.80;99.90;;;;;;5104382;28;19969;-76
2023/01/14 13:48:58;;;;;;;;;;;5.40;99.90;;;;;;5103912;28;19915;-78
2023/01/14 13:51:45;;;;;;;;;;;5.80;99.90;;;;;;5104094;28;20202;-77
2023/01/14 13:54:10;;;;;;;;;;;5.80;99.90;;;;;;5091215;28;19915;-77
2023/01/14 13:56:37;;;;;;;;;;;5.80;99.90;;;;;;5110046;28;19912;-77
2023/01/14 13:59:03;;;;;;;;;;;5.80;99.90;;;;;;5091348;28;19914;-77
2023/01/14 14:01:31;;;;;;;;;;;5.80;99.90;;;;;;5108790;28;19936;-78
2023/01/14 14:04:03;;;;;;;;;;;5.70;99.90;;;;;;5085998;28;19958;-76
2023/01/14 14:06:31;;;;;;;;;;;5.70;99.90;;;;;;5103291;28;19907;-77
2023/01/14 14:09:05;;;;;;;;;;;5.70;99.90;;;;;;5107812;28;19966;-77
2023/01/14 14:11:48;;;;;;;;;;;5.80;99.90;;;;;;5110153;28;19916;-77
2023/01/14 14:14:16;;;;;;;;;;;5.70;99.90;;;;;;5107116;28;19908;-78
2023/01/14 14:16:57;;;;;;;;;;;5.70;99.90;;;;;;5102761;28;19927;-76
2023/01/14 14:19:35;;;;;;;;;;;5.70;99.90;;;;;;5101620;28;20086;-78
2023/01/14 14:22:04;;;;;;;;;;;5.70;99.90;;;;;;5100731;28;19955;-77
2023/01/14 14:24:45;;;;;;;;;;;5.70;99.90;;;;;;5082336;28;19995;-77
2023/01/14 14:27:13;;;;;;;;;;;5.70;99.90;;;;;;5081207;28;19908;-77
2023/01/14 14:29:41;;;;;;;;;;;6.80;99.90;;;;;;5081510;28;19922;-76
2023/01/14 14:32:11;;;;;;;;;;;5.70;99.90;;;;;;5101864;28;19911;-77
2023/01/14 14:34:43;;;;;;;;;;;5.70;99.90;;;;;;5101637;28;19908;-77
2023/01/14 14:37:21;;;;;;;;;;;5.80;99.90;;;;;;5102142;28;19914;-77
2023/01/14 14:39:54;;;;;;;;;;;5.70;99.90;;;;;;5104347;28;20112;-76
2023/01/14 14:42:21;;;;;;;;;;;5.80;99.90;;;;;;5105455;28;20124;-78
2023/01/14 14:44:54;;;;;;;;;;;5.80;99.90;;;;;;5106120;28;19916;-76
2023/01/14 14:47:30;;;;;;;;;;;5.80;99.90;;;;;;5103972;28;19908;-76
2023/01/14 14:49:56;;;;;;;;;;;5.80;99.90;;;;;;5103650;28;19914;-75
2023/01/14 14:52:24;;;;;;;;;;;5.80;99.90;;;;;;5104842;28;19916;-75
2023/01/14 14:54:51;;;;;;;;;;;5.80;99.90;;;;;;5104041;28;19908;-75
2023/01/14 14:57:25;;;;;;;;;;;5.80;99.90;;;;;;5104177;28;19908;-75
2023/01/14 14:59:51;;;;;;;;;;;5.80;99.90;;;;;;5104818;28;19912;-76
2023/01/14 15:02:17;;;;;;;;;;;5.70;99.90;;;;;;5104578;28;20381;-75
2023/01/14 15:04:44;;;;;;;;;;;5.80;99.90;;;;;;5104172;28;19911;-76
2023/01/14 15:07:09;;;;;;;;;;;5.80;99.90;;;;;;5105386;28;19908;-77
2023/01/14 15:09:35;;;;;;;;;;;5.70;99.90;;;;;;5085875;28;19904;-77
2023/01/14 15:12:01;;;;;;;;;;;5.70;99.90;;;;;;5105122;28;19912;-76